Time;durP1;ratioP1;P1;durP2;ratioP2;P2;SDS_P1;SDS_P2;PMS_P1;PMS_P2;Temp;Humidity;BMP_temperature;BMP_pressure;BME280_temperature;BME280_humidity;BME280_pressure;Samples;Min_cycle;Max_cycle;Signal;HPM_P1;HPM_P2
2020/12/01 00:01:00;;;;;;;32.03;17.23;;;;;;;;;;4983425;28;20907;-72
2020/12/01 00:04:04;;;;;;;33.13;17.70;;;;;;;;;;4994992;28;21200;-71
2020/12/01 00:07:08;;;;;;;30.37;16.87;;;;;;;;;;4995153;28;20647;-71
2020/12/01 00:10:16;;;;;;;34.70;17.97;;;;;;;;;;4993829;28;20616;-72
2020/12/01 00:13:19;;;;;;;32.17;18.53;;;;;;;;;;4995076;28;20616;-72
2020/12/01 00:16:24;;;;;;;33.17;18.07;;;;;;;;;;4994651;28;20636;-72
2020/12/01 00:19:28;;;;;;;32.03;17.40;;;;;;;;;;4995025;28;20549;-71
2020/12/01 00:22:33;;;;;;;38.77;18.53;;;;;;;;;;4994979;28;20538;-71
2020/12/01 00:25:37;;;;;;;32.13;17.37;;;;;;;;;;4994819;28;20632;-72
2020/12/01 00:28:42;;;;;;;30.60;17.00;;;;;;;;;;4982620;28;20601;-72
2020/12/01 00:31:46;;;;;;;31.40;18.17;;;;;;;;;;4994651;28;21197;-72
2020/12/01 00:34:50;;;;;;;33.40;17.73;;;;;;;;;;4993922;28;20631;-71
2020/12/01 00:37:54;;;;;;;29.47;16.87;;;;;;;;;;4994692;28;20549;-72
2020/12/01 00:40:58;;;;;;;31.40;17.40;;;;;;;;;;4982449;28;20563;-71
2020/12/01 00:44:03;;;;;;;31.53;17.63;;;;;;;;;;4994599;28;20554;-71
2020/12/01 00:47:07;;;;;;;30.23;17.40;;;;;;;;;;4982325;28;20633;-72
2020/12/01 00:50:17;;;;;;;31.30;17.47;;;;;;;;;;4982418;28;20617;-72
2020/12/01 00:53:22;;;;;;;29.93;17.27;;;;;;;;;;4993613;28;20552;-72
2020/12/01 00:56:26;;;;;;;29.73;16.93;;;;;;;;;;4982083;28;20630;-71
2020/12/01 00:59:31;;;;;;;29.40;17.43;;;;;;;;;;4982338;28;20545;-71
2020/12/01 01:02:36;;;;;;;29.70;16.77;;;;;;;;;;4982100;28;20560;-72
2020/12/01 01:05:41;;;;;;;31.87;17.90;;;;;;;;;;4994122;28;21207;-72
2020/12/01 01:08:44;;;;;;;32.43;17.70;;;;;;;;;;4994057;28;20647;-72
2020/12/01 01:11:49;;;;;;;30.47;17.43;;;;;;;;;;4993898;28;20910;-72
2020/12/01 01:14:53;;;;;;;32.57;18.00;;;;;;;;;;4994150;28;20549;-71
2020/12/01 01:17:58;;;;;;;29.50;16.50;;;;;;;;;;4993841;28;20552;-72
2020/12/01 01:21:02;;;;;;;31.07;17.03;;;;;;;;;;4993008;28;21097;-71
2020/12/01 01:24:07;;;;;;;30.97;17.20;;;;;;;;;;4981765;28;20971;-71
2020/12/01 01:27:11;;;;;;;30.27;17.83;;;;;;;;;;4993629;28;20632;-72
2020/12/01 01:30:19;;;;;;;30.57;17.80;;;;;;;;;;4981972;28;20596;-71
2020/12/01 01:33:23;;;;;;;29.43;15.90;;;;;;;;;;4993930;28;20546;-72
2020/12/01 01:36:32;;;;;;;30.83;17.10;;;;;;;;;;4993790;28;20628;-72
2020/12/01 01:39:37;;;;;;;29.60;17.30;;;;;;;;;;4993989;28;20552;-72
2020/12/01 01:42:41;;;;;;;35.50;19.73;;;;;;;;;;4993538;28;20554;-72
2020/12/01 01:45:48;;;;;;;32.43;17.37;;;;;;;;;;4993570;28;20652;-72
2020/12/01 01:48:52;;;;;;;31.50;17.47;;;;;;;;;;4992853;28;20598;-72
2020/12/01 01:51:58;;;;;;;32.03;18.10;;;;;;;;;;4993702;28;20574;-72
2020/12/01 01:55:08;;;;;;;33.63;18.27;;;;;;;;;;4993568;28;20565;-72
2020/12/01 01:58:15;;;;;;;32.80;17.97;;;;;;;;;;4993676;28;21087;-72
2020/12/01 02:01:22;;;;;;;31.90;18.77;;;;;;;;;;4992663;28;20604;-72
2020/12/01 02:04:29;;;;;;;31.63;17.10;;;;;;;;;;4993623;28;20553;-71
2020/12/01 02:07:34;;;;;;;34.23;18.27;;;;;;;;;;4992776;28;20550;-72
2020/12/01 02:10:38;;;;;;;32.30;18.10;;;;;;;;;;4993073;28;20656;-71
2020/12/01 02:14:11;;;;;;;36.00;19.13;;;;;;;;;;4993276;28;20553;-71
2020/12/01 02:17:27;;;;;;;31.93;17.93;;;;;;;;;;4993289;28;20628;-72
2020/12/01 02:20:36;;;;;;;32.00;18.10;;;;;;;;;;4993448;28;20548;-72
2020/12/01 02:23:40;;;;;;;34.07;18.10;;;;;;;;;;4993127;28;20557;-71
2020/12/01 02:26:48;;;;;;;32.47;18.40;;;;;;;;;;4993356;28;20627;-71
2020/12/01 02:29:56;;;;;;;33.17;18.30;;;;;;;;;;4993553;28;20601;-71
2020/12/01 02:33:00;;;;;;;30.30;17.43;;;;;;;;;;4994156;28;20561;-71
2020/12/01 02:36:04;;;;;;;32.50;17.40;;;;;;;;;;4996713;28;20627;-71
2020/12/01 02:39:11;;;;;;;32.80;17.47;;;;;;;;;;4996704;28;20559;-71
2020/12/01 02:42:22;;;;;;;29.50;16.63;;;;;;;;;;4997140;28;20553;-71
2020/12/01 02:45:27;;;;;;;28.13;15.93;;;;;;;;;;4996818;28;21243;-71
2020/12/01 02:48:31;;;;;;;33.07;16.10;;;;;;;;;;4984772;28;20553;-71
2020/12/01 02:51:35;;;;;;;29.90;16.33;;;;;;;;;;4996682;28;20537;-71
2020/12/01 02:54:39;;;;;;;26.70;14.77;;;;;;;;;;4996464;28;20912;-71
2020/12/01 02:57:44;;;;;;;29.03;15.27;;;;;;;;;;4996580;28;20549;-71
2020/12/01 03:00:48;;;;;;;27.10;16.50;;;;;;;;;;4996488;28;20550;-71
2020/12/01 03:03:52;;;;;;;26.33;15.40;;;;;;;;;;4996226;28;20629;-71
2020/12/01 03:06:56;;;;;;;28.87;16.07;;;;;;;;;;4996114;28;20651;-71
2020/12/01 03:10:01;;;;;;;29.93;15.10;;;;;;;;;;4995834;28;20655;-71
2020/12/01 03:13:05;;;;;;;26.70;15.53;;;;;;;;;;4984015;28;20611;-71
2020/12/01 03:16:11;;;;;;;28.10;16.00;;;;;;;;;;4984509;28;20632;-71
2020/12/01 03:19:16;;;;;;;26.23;15.47;;;;;;;;;;4996189;28;21093;-71
2020/12/01 03:22:20;;;;;;;25.07;14.00;;;;;;;;;;4996105;28;20549;-71
2020/12/01 03:25:24;;;;;;;28.23;15.30;;;;;;;;;;4984007;28;20610;-71
2020/12/01 03:28:29;;;;;;;25.07;14.90;;;;;;;;;;4995672;28;20607;-71
2020/12/01 03:31:33;;;;;;;26.87;15.47;;;;;;;;;;4995237;28;20561;-72
2020/12/01 03:34:37;;;;;;;28.67;16.00;;;;;;;;;;4995873;28;20553;-71
2020/12/01 03:37:41;;;;;;;26.30;14.73;;;;;;;;;;4983591;28;20900;-71
2020/12/01 03:40:46;;;;;;;25.57;15.07;;;;;;;;;;4995608;28;20556;-71
2020/12/01 03:43:50;;;;;;;24.47;14.90;;;;;;;;;;4995281;28;20553;-72
2020/12/01 03:46:56;;;;;;;26.43;14.97;;;;;;;;;;4995623;28;20632;-72
2020/12/01 03:50:00;;;;;;;22.97;14.20;;;;;;;;;;4995542;28;20590;-71
2020/12/01 03:53:04;;;;;;;27.63;14.83;;;;;;;;;;4995538;28;21115;-72
2020/12/01 03:56:09;;;;;;;24.37;13.90;;;;;;;;;;4995480;28;21201;-71
2020/12/01 03:59:13;;;;;;;23.53;13.33;;;;;;;;;;4995445;28;20560;-72
2020/12/01 04:02:17;;;;;;;23.97;15.00;;;;;;;;;;4995072;28;20608;-71
2020/12/01 04:05:24;;;;;;;24.60;14.23;;;;;;;;;;4995493;28;20893;-71
2020/12/01 04:08:28;;;;;;;25.70;14.83;;;;;;;;;;4995215;28;20904;-71
2020/12/01 04:11:32;;;;;;;25.07;13.87;;;;;;;;;;4995200;28;20539;-71
2020/12/01 04:14:36;;;;;;;26.33;15.10;;;;;;;;;;4983100;28;20557;-71
2020/12/01 04:17:40;;;;;;;23.50;14.00;;;;;;;;;;4994840;28;20932;-71
2020/12/01 04:20:44;;;;;;;22.90;14.37;;;;;;;;;;4995028;28;20542;-71
2020/12/01 04:23:51;;;;;;;23.33;14.37;;;;;;;;;;4995145;28;20929;-71
2020/12/01 04:26:55;;;;;;;24.17;13.93;;;;;;;;;;4982589;28;20632;-71
2020/12/01 04:30:00;;;;;;;24.80;14.17;;;;;;;;;;4994765;28;20592;-71
2020/12/01 04:33:04;;;;;;;26.03;15.17;;;;;;;;;;4993708;28;20565;-71
2020/12/01 04:36:10;;;;;;;24.07;13.97;;;;;;;;;;4982459;28;20635;-71
2020/12/01 04:39:14;;;;;;;22.77;13.77;;;;;;;;;;4994954;28;20558;-71
2020/12/01 04:42:20;;;;;;;27.00;14.40;;;;;;;;;;4978710;28;20605;-71
2020/12/01 04:45:25;;;;;;;25.53;15.23;;;;;;;;;;4974816;28;20609;-71
2020/12/01 04:49:01;;;;;;;24.43;14.20;;;;;;;;;;4994518;28;21112;-71
2020/12/01 04:52:33;;;;;;;22.10;13.77;;;;;;;;;;4975517;28;20958;-71
2020/12/01 04:56:22;;;;;;;25.63;13.37;;;;;;;;;;4978619;28;20661;-71
2020/12/01 04:59:56;;;;;;;26.17;15.07;;;;;;;;;;4896638;29;20562;-71
2020/12/01 05:03:09;;;;;;;23.00;14.17;;;;;;;;;;4913692;28;20637;-71
2020/12/01 05:06:39;;;;;;;26.67;14.57;;;;;;;;;;4976593;28;21243;-71
2020/12/01 05:09:46;;;;;;;27.03;15.03;;;;;;;;;;4974295;28;20661;-71
2020/12/01 05:12:57;;;;;;;26.80;14.37;;;;;;;;;;4974444;28;20589;-71
2020/12/01 05:16:16;;;;;;;28.73;15.77;;;;;;;;;;4975413;28;20653;-70
2020/12/01 05:19:59;;;;;;;24.97;15.07;;;;;;;;;;4982613;28;20600;-71
2020/12/01 05:23:02;;;;;;;26.50;15.23;;;;;;;;;;4994278;28;20541;-72
2020/12/01 05:26:10;;;;;;;28.97;15.23;;;;;;;;;;4981697;28;20679;-71
2020/12/01 05:29:24;;;;;;;26.37;15.10;;;;;;;;;;4993879;28;20553;-70
2020/12/01 05:32:40;;;;;;;26.70;16.07;;;;;;;;;;4970638;28;20613;-70
2020/12/01 05:36:01;;;;;;;26.23;15.93;;;;;;;;;;4981808;28;20628;-70
2020/12/01 05:39:24;;;;;;;27.60;15.60;;;;;;;;;;4993715;28;20551;-70
2020/12/01 05:42:28;;;;;;;28.70;16.10;;;;;;;;;;4993605;28;20552;-70
2020/12/01 05:45:36;;;;;;;24.10;15.17;;;;;;;;;;4970529;28;20636;-70
2020/12/01 05:49:00;;;;;;;26.63;16.03;;;;;;;;;;4993833;28;20553;-70
2020/12/01 05:52:23;;;;;;;25.13;14.43;;;;;;;;;;4981779;28;20534;-70
2020/12/01 05:55:28;;;;;;;30.33;15.90;;;;;;;;;;4993719;28;20638;-70
2020/12/01 05:58:38;;;;;;;28.83;15.40;;;;;;;;;;4993403;28;20543;-70
2020/12/01 06:01:44;;;;;;;29.00;15.77;;;;;;;;;;4981413;28;20602;-70
2020/12/01 06:04:48;;;;;;;29.97;16.83;;;;;;;;;;4993995;28;20557;-70
2020/12/01 06:08:00;;;;;;;27.10;15.73;;;;;;;;;;4982715;28;20572;-70
2020/12/01 06:11:35;;;;;;;30.67;16.13;;;;;;;;;;4997285;28;21222;-70
2020/12/01 06:14:55;;;;;;;29.17;15.57;;;;;;;;;;4997354;28;20571;-70
2020/12/01 06:18:19;;;;;;;27.60;15.20;;;;;;;;;;4997046;28;20560;-70
2020/12/01 06:21:38;;;;;;;27.37;15.47;;;;;;;;;;4997250;28;20549;-70
2020/12/01 06:25:07;;;;;;;27.50;15.67;;;;;;;;;;4996917;28;20549;-71
2020/12/01 06:28:44;;;;;;;29.87;15.00;;;;;;;;;;4997135;28;20549;-71
2020/12/01 06:31:47;;;;;;;24.73;15.03;;;;;;;;;;4996911;28;20609;-70
2020/12/01 06:35:23;;;;;;;26.60;15.37;;;;;;;;;;4985177;28;20557;-70
2020/12/01 06:39:05;;;;;;;26.73;14.63;;;;;;;;;;4997269;28;20909;-71
2020/12/01 06:42:32;;;;;;;24.80;13.70;;;;;;;;;;4984911;28;20616;-70
2020/12/01 06:45:49;;;;;;;25.70;14.43;;;;;;;;;;4985219;28;21174;-70
2020/12/01 06:48:54;;;;;;;26.10;15.17;;;;;;;;;;4996650;28;20558;-70
2020/12/01 06:52:02;;;;;;;27.33;14.90;;;;;;;;;;4996262;28;20665;-71
2020/12/01 06:55:06;;;;;;;25.00;14.37;;;;;;;;;;4996507;28;20561;-70
2020/12/01 06:58:25;;;;;;;26.47;14.77;;;;;;;;;;4996481;28;20673;-71
2020/12/01 07:01:31;;;;;;;26.07;14.07;;;;;;;;;;4984607;28;20561;-71
2020/12/01 07:04:35;;;;;;;26.60;14.53;;;;;;;;;;4996119;28;20556;-71
2020/12/01 07:07:44;;;;;;;24.20;14.70;;;;;;;;;;4972941;28;20555;-71
2020/12/01 07:11:01;;;;;;;28.13;15.60;;;;;;;;;;4997476;28;20668;-71
2020/12/01 07:14:21;;;;;;;23.27;14.40;;;;;;;;;;4983929;28;20608;-70
2020/12/01 07:17:31;;;;;;;23.33;13.60;;;;;;;;;;4995973;28;20629;-70
2020/12/01 07:20:44;;;;;;;23.97;13.93;;;;;;;;;;4995953;28;20960;-70
2020/12/01 07:23:54;;;;;;;26.87;14.43;;;;;;;;;;4984080;28;21097;-71
2020/12/01 07:27:05;;;;;;;29.13;14.30;;;;;;;;;;4995645;28;20624;-71
2020/12/01 07:30:27;;;;;;;26.93;14.37;;;;;;;;;;4995820;28;20555;-70
2020/12/01 07:33:35;;;;;;;23.27;13.20;;;;;;;;;;4996329;28;20901;-70
2020/12/01 07:36:43;;;;;;;25.10;13.03;;;;;;;;;;4983967;28;20628;-70
2020/12/01 07:39:53;;;;;;;25.97;14.70;;;;;;;;;;4995697;28;21211;-70
2020/12/01 07:43:00;;;;;;;27.87;13.73;;;;;;;;;;4983729;28;20545;-70
2020/12/01 07:46:05;;;;;;;22.27;13.10;;;;;;;;;;4995493;28;21225;-70
2020/12/01 07:49:09;;;;;;;27.80;13.40;;;;;;;;;;4995615;28;20545;-70
2020/12/01 07:52:13;;;;;;;19.23;12.30;;;;;;;;;;4995402;28;21178;-73
2020/12/01 07:55:24;;;;;;;24.07;13.20;;;;;;;;;;4983228;28;20569;-73
2020/12/01 07:58:30;;;;;;;22.37;12.90;;;;;;;;;;4995090;28;20613;-73
2020/12/01 08:01:35;;;;;;;25.80;12.73;;;;;;;;;;4995372;28;20563;-73
2020/12/01 08:04:39;;;;;;;18.10;11.87;;;;;;;;;;4983556;28;21060;-73
2020/12/01 08:07:53;;;;;;;21.33;12.87;;;;;;;;;;4995271;28;20889;-73
2020/12/01 08:10:57;;;;;;;23.30;12.67;;;;;;;;;;4982987;28;20991;-73
2020/12/01 08:14:02;;;;;;;22.67;12.43;;;;;;;;;;4995158;28;20886;-73
2020/12/01 08:17:12;;;;;;;18.70;11.73;;;;;;;;;;4982801;28;20625;-73
2020/12/01 08:20:25;;;;;;;18.23;11.27;;;;;;;;;;4983013;28;20542;-73
2020/12/01 08:23:31;;;;;;;19.90;11.33;;;;;;;;;;4994903;28;21069;-73
2020/12/01 08:26:37;;;;;;;19.00;11.50;;;;;;;;;;4994965;28;20632;-73
2020/12/01 08:29:43;;;;;;;18.83;10.60;;;;;;;;;;4982532;28;20554;-73
2020/12/01 08:32:57;;;;;;;16.63;11.00;;;;;;;;;;4994480;28;20546;-73
2020/12/01 08:36:18;;;;;;;15.57;10.27;;;;;;;;;;4994285;28;20625;-73
2020/12/01 08:39:45;;;;;;;19.07;11.43;;;;;;;;;;4960427;28;20550;-72
2020/12/01 08:43:14;;;;;;;17.63;9.80;;;;;;;;;;4982421;28;20538;-73
2020/12/01 08:46:24;;;;;;;15.93;9.50;;;;;;;;;;4994334;28;20616;-73
2020/12/01 08:49:43;;;;;;;16.60;9.67;;;;;;;;;;4994467;28;20542;-73
2020/12/01 08:52:48;;;;;;;15.33;9.37;;;;;;;;;;4981997;28;20585;-73
2020/12/01 08:55:56;;;;;;;15.63;9.63;;;;;;;;;;4994354;28;20951;-73
2020/12/01 08:59:06;;;;;;;16.60;9.60;;;;;;;;;;4982307;28;20546;-73
2020/12/01 09:02:12;;;;;;;13.33;8.40;;;;;;;;;;4982242;28;20887;-74
2020/12/01 09:05:32;;;;;;;13.50;8.83;;;;;;;;;;4993721;28;20933;-73
2020/12/01 09:08:41;;;;;;;18.90;9.40;;;;;;;;;;4982249;28;20554;-74
2020/12/01 09:12:13;;;;;;;14.07;8.20;;;;;;;;;;4981810;28;21227;-74
2020/12/01 09:19:19;;;;;;;13.90;8.67;;;;;;;;;;4991363;28;20621;-74
2020/12/01 09:22:30;;;;;;;13.33;8.83;;;;;;;;;;4994020;28;20546;-74
2020/12/01 09:25:36;;;;;;;16.90;9.13;;;;;;;;;;4993692;28;20621;-74
2020/12/01 09:28:46;;;;;;;15.30;9.30;;;;;;;;;;4993864;28;20545;-74
2020/12/01 09:31:50;;;;;;;13.80;8.13;;;;;;;;;;4993696;28;20649;-74
2020/12/01 09:34:54;;;;;;;13.10;8.50;;;;;;;;;;4970870;28;20546;-75
2020/12/01 09:37:59;;;;;;;13.87;8.70;;;;;;;;;;4971075;28;21076;-75
2020/12/01 09:41:03;;;;;;;15.63;9.33;;;;;;;;;;4993663;28;20554;-75
2020/12/01 09:44:36;;;;;;;15.87;8.93;;;;;;;;;;4997848;28;20546;-75
2020/12/01 09:47:39;;;;;;;14.97;9.03;;;;;;;;;;4985554;28;20554;-75
2020/12/01 09:50:43;;;;;;;19.40;9.00;;;;;;;;;;4997832;28;20545;-75
2020/12/01 09:54:01;;;;;;;17.97;8.60;;;;;;;;;;4985680;28;20546;-76
2020/12/01 10:02:50;;;;;;;16.67;8.70;;;;;;;;;;4997343;28;20546;-77
2020/12/01 10:27:45;;;;;;;13.73;8.77;;;;;;;;;;4999169;28;20625;-80
2020/12/01 10:34:42;;;;;;;14.63;7.80;;;;;;;;;;5011581;28;20542;-80
2020/12/01 10:37:46;;;;;;;13.73;8.53;;;;;;;;;;5015674;28;20534;-81
2020/12/01 10:40:51;;;;;;;16.63;8.80;;;;;;;;;;5018248;28;20557;-81
2020/12/01 10:43:55;;;;;;;13.43;8.27;;;;;;;;;;5006578;28;20554;-82
2020/12/01 10:47:00;;;;;;;14.80;8.37;;;;;;;;;;5016852;28;20625;-81
2020/12/01 10:50:06;;;;;;;12.63;8.53;;;;;;;;;;4994925;28;20553;-81
2020/12/01 10:53:10;;;;;;;12.73;8.60;;;;;;;;;;4994625;28;20597;-83
2020/12/01 10:56:15;;;;;;;12.60;8.47;;;;;;;;;;4995845;28;20632;-84
2020/12/01 10:59:22;;;;;;;11.93;7.87;;;;;;;;;;4998999;28;20550;-82
2020/12/01 11:02:26;;;;;;;15.73;8.30;;;;;;;;;;5002879;28;20570;-82
2020/12/01 11:05:31;;;;;;;13.47;8.10;;;;;;;;;;4974553;28;20624;-82
2020/12/01 11:08:35;;;;;;;12.17;8.10;;;;;;;;;;4974776;28;20542;-82
2020/12/01 11:11:40;;;;;;;13.47;7.27;;;;;;;;;;4975497;28;20601;-83
2020/12/01 11:14:44;;;;;;;10.20;6.63;;;;;;;;;;4979854;28;20549;-81
2020/12/01 11:17:48;;;;;;;12.43;8.03;;;;;;;;;;4974633;28;20553;-75
2020/12/01 11:20:52;;;;;;;12.07;7.87;;;;;;;;;;4996428;28;20542;-75
2020/12/01 11:23:56;;;;;;;11.13;7.67;;;;;;;;;;4996113;28;20890;-74
2020/12/01 11:27:01;;;;;;;14.40;8.17;;;;;;;;;;4995960;28;21187;-74
2020/12/01 11:30:06;;;;;;;10.53;7.20;;;;;;;;;;4996919;28;20542;-76
2020/12/01 11:33:09;;;;;;;10.90;7.37;;;;;;;;;;4983510;28;20593;-76
2020/12/01 11:36:14;;;;;;;11.47;7.77;;;;;;;;;;4983674;28;20628;-76
2020/12/01 11:39:18;;;;;;;13.53;6.90;;;;;;;;;;4995469;28;20605;-76
2020/12/01 11:42:22;;;;;;;13.73;7.40;;;;;;;;;;5006284;22;20691;-85
2020/12/01 11:45:26;;;;;;;12.20;8.17;;;;;;;;;;5011248;28;20600;-85
2020/12/01 11:48:31;;;;;;;11.53;7.97;;;;;;;;;;5009657;28;20608;-85
2020/12/01 11:51:37;;;;;;;17.40;8.77;;;;;;;;;;5008792;28;20533;-86
2020/12/01 11:54:42;;;;;;;17.13;8.30;;;;;;;;;;4997021;28;20549;-86
2020/12/01 11:57:46;;;;;;;17.03;8.80;;;;;;;;;;4985416;28;20545;-86
2020/12/01 12:00:50;;;;;;;13.00;8.17;;;;;;;;;;4996024;28;20544;-86
2020/12/01 12:03:55;;;;;;;16.73;9.20;;;;;;;;;;4982591;28;21185;-87
2020/12/01 12:07:00;;;;;;;18.10;8.93;;;;;;;;;;4992831;28;20545;-87
2020/12/01 12:10:04;;;;;;;15.63;9.17;;;;;;;;;;4992722;28;20549;-86
2020/12/01 12:13:08;;;;;;;14.63;9.17;;;;;;;;;;4992004;28;20660;-86
2020/12/01 12:16:15;;;;;;;16.07;9.80;;;;;;;;;;5003237;28;21162;-87
2020/12/01 12:19:19;;;;;;;13.77;9.17;;;;;;;;;;4991534;28;20600;-87
2020/12/01 12:22:23;;;;;;;13.67;9.27;;;;;;;;;;4991942;28;20612;-86
2020/12/01 12:25:27;;;;;;;15.87;9.47;;;;;;;;;;4980919;28;20545;-86
2020/12/01 12:28:31;;;;;;;16.63;9.50;;;;;;;;;;4980834;28;20541;-86
2020/12/01 12:31:35;;;;;;;12.73;8.83;;;;;;;;;;4980731;28;21071;-86
2020/12/01 12:34:39;;;;;;;13.50;9.13;;;;;;;;;;4992165;28;21087;-86
2020/12/01 12:37:43;;;;;;;13.37;9.20;;;;;;;;;;4991838;28;20536;-86
2020/12/01 12:40:47;;;;;;;14.33;8.50;;;;;;;;;;4991714;28;20553;-86
2020/12/01 12:43:51;;;;;;;12.17;8.30;;;;;;;;;;5002397;28;20979;-88
2020/12/01 12:46:55;;;;;;;16.83;9.50;;;;;;;;;;4992090;28;20600;-86
2020/12/01 12:49:59;;;;;;;14.53;8.70;;;;;;;;;;4992496;28;20596;-86
2020/12/01 12:53:05;;;;;;;12.67;9.13;;;;;;;;;;5003831;28;21242;-86
2020/12/01 12:56:09;;;;;;;13.63;8.77;;;;;;;;;;4981570;28;20881;-85
2020/12/01 12:59:13;;;;;;;15.47;9.20;;;;;;;;;;4981538;28;20537;-85
2020/12/01 13:02:18;;;;;;;13.27;9.17;;;;;;;;;;4992298;28;20616;-85
2020/12/01 13:05:23;;;;;;;12.90;8.70;;;;;;;;;;4991022;28;20591;-86
2020/12/01 13:08:27;;;;;;;15.80;9.00;;;;;;;;;;5000376;28;20941;-85
2020/12/01 13:11:32;;;;;;;12.43;8.90;;;;;;;;;;4972667;28;21080;-85
2020/12/01 13:14:36;;;;;;;15.23;9.00;;;;;;;;;;4986430;28;20585;-85
2020/12/01 13:17:40;;;;;;;17.30;8.40;;;;;;;;;;4991295;28;20557;-84
2020/12/01 13:20:44;;;;;;;16.30;9.10;;;;;;;;;;4991264;28;20597;-84
2020/12/01 13:23:49;;;;;;;14.83;9.20;;;;;;;;;;4991251;28;20992;-85
2020/12/01 13:26:53;;;;;;;16.23;9.97;;;;;;;;;;4979704;28;20608;-84
2020/12/01 13:29:58;;;;;;;14.13;9.70;;;;;;;;;;4971641;28;20711;-85
2020/12/01 13:33:01;;;;;;;17.80;9.53;;;;;;;;;;4990727;28;20675;-85
2020/12/01 13:36:06;;;;;;;14.83;8.80;;;;;;;;;;4980545;28;20592;-86
2020/12/01 13:39:10;;;;;;;19.60;10.60;;;;;;;;;;4994720;28;20588;-86
2020/12/01 13:42:15;;;;;;;21.03;11.30;;;;;;;;;;5001593;28;20652;-86
2020/12/01 13:45:19;;;;;;;17.23;11.00;;;;;;;;;;4965223;28;20576;-86
2020/12/01 13:48:23;;;;;;;16.07;11.90;;;;;;;;;;4989657;28;20608;-85
2020/12/01 13:51:31;;;;;;;17.77;11.23;;;;;;;;;;4989232;28;20604;-86
2020/12/01 13:54:37;;;;;;;17.37;11.13;;;;;;;;;;5001998;28;20561;-85
2020/12/01 13:57:43;;;;;;;17.00;11.37;;;;;;;;;;4991698;28;21111;-86
2020/12/01 14:00:47;;;;;;;17.23;10.43;;;;;;;;;;4969937;28;20546;-87
2020/12/01 14:03:51;;;;;;;19.23;11.10;;;;;;;;;;4971918;28;20617;-86
2020/12/01 14:06:56;;;;;;;17.50;10.17;;;;;;;;;;4989666;28;20588;-86
2020/12/01 14:10:00;;;;;;;15.67;10.70;;;;;;;;;;4981281;28;20588;-87
2020/12/01 14:13:05;;;;;;;17.97;10.87;;;;;;;;;;5003024;28;20655;-87
2020/12/01 14:16:13;;;;;;;16.50;11.30;;;;;;;;;;4980808;28;20552;-87
2020/12/01 14:19:20;;;;;;;17.50;11.50;;;;;;;;;;4993729;28;20544;-87
2020/12/01 14:22:24;;;;;;;19.10;11.47;;;;;;;;;;5001275;28;20652;-87
2020/12/01 14:25:31;;;;;;;20.83;11.27;;;;;;;;;;4992103;28;20596;-89
2020/12/01 14:28:35;;;;;;;19.33;11.60;;;;;;;;;;4979624;28;20560;-84
2020/12/01 14:31:40;;;;;;;19.10;11.50;;;;;;;;;;4994769;28;20560;-87
2020/12/01 14:34:44;;;;;;;18.83;11.93;;;;;;;;;;4993833;28;20593;-89
2020/12/01 14:37:48;;;;;;;19.50;11.80;;;;;;;;;;4994093;28;20699;-88
2020/12/01 14:40:53;;;;;;;17.93;11.80;;;;;;;;;;4994409;28;20620;-87
2020/12/01 14:43:57;;;;;;;21.73;12.93;;;;;;;;;;4994273;28;20648;-88
2020/12/01 14:47:19;;;;;;;22.33;12.33;;;;;;;;;;4963995;28;20553;-89
2020/12/01 14:50:51;;;;;;;22.57;12.33;;;;;;;;;;4994443;28;21167;-87
2020/12/01 14:54:16;;;;;;;21.63;13.20;;;;;;;;;;4993359;28;20668;-86
2020/12/01 14:57:58;;;;;;;20.30;12.70;;;;;;;;;;4993238;28;20588;-88
2020/12/01 15:01:40;;;;;;;20.70;12.40;;;;;;;;;;4993429;28;20596;-86
2020/12/01 15:05:08;;;;;;;20.73;10.93;;;;;;;;;;4993304;28;20580;-87
2020/12/01 15:08:45;;;;;;;26.50;14.97;;;;;;;;;;4990880;28;20581;-89
2020/12/01 15:11:59;;;;;;;23.10;12.60;;;;;;;;;;5003681;28;20616;-89
2020/12/01 15:15:08;;;;;;;24.63;13.30;;;;;;;;;;4992552;28;20580;-88
2020/12/01 15:18:16;;;;;;;24.73;14.17;;;;;;;;;;5002691;28;20592;-89
2020/12/01 15:21:47;;;;;;;24.50;12.83;;;;;;;;;;4993131;28;20889;-89
2020/12/01 15:24:57;;;;;;;25.37;13.73;;;;;;;;;;4993752;28;20596;-89
2020/12/01 15:28:08;;;;;;;23.07;13.13;;;;;;;;;;4982312;28;20620;-88
2020/12/01 15:31:17;;;;;;;22.23;12.63;;;;;;;;;;4989588;28;20951;-89
2020/12/01 15:34:21;;;;;;;23.93;14.27;;;;;;;;;;4987901;28;20971;-89
2020/12/01 15:37:30;;;;;;;22.43;13.63;;;;;;;;;;4975443;28;20534;-89
2020/12/01 15:40:53;;;;;;;22.67;13.87;;;;;;;;;;4974434;28;20870;-89
2020/12/01 15:44:05;;;;;;;22.87;13.97;;;;;;;;;;4995050;28;20655;-91
2020/12/01 15:47:09;;;;;;;25.27;13.77;;;;;;;;;;4992316;28;20900;-88
2020/12/01 15:50:14;;;;;;;23.10;13.97;;;;;;;;;;4981833;28;21205;-89
2020/12/01 15:53:43;;;;;;;23.20;13.87;;;;;;;;;;4980654;28;20660;-88
2020/12/01 15:56:51;;;;;;;24.57;13.97;;;;;;;;;;4992684;28;20537;-87
2020/12/01 16:00:30;;;;;;;24.50;13.87;;;;;;;;;;4992821;28;20549;-87
2020/12/01 16:04:04;;;;;;;24.37;14.13;;;;;;;;;;5000446;28;20641;-88
2020/12/01 16:07:30;;;;;;;27.40;15.20;;;;;;;;;;4991452;28;21158;-88
2020/12/01 16:10:34;;;;;;;24.50;14.30;;;;;;;;;;4991979;28;20553;-88
2020/12/01 16:14:00;;;;;;;27.23;14.90;;;;;;;;;;4991734;28;20660;-88
2020/12/01 16:17:25;;;;;;;28.07;14.97;;;;;;;;;;4991830;28;20545;-87
2020/12/01 16:20:36;;;;;;;25.47;14.13;;;;;;;;;;4991816;28;20889;-88
2020/12/01 16:23:50;;;;;;;27.00;14.57;;;;;;;;;;4991139;28;20644;-88
2020/12/01 16:27:09;;;;;;;27.87;14.90;;;;;;;;;;4991813;28;20557;-88
2020/12/01 16:30:23;;;;;;;26.03;15.10;;;;;;;;;;4980520;28;20541;-88
2020/12/01 16:33:27;;;;;;;24.97;15.30;;;;;;;;;;5002136;28;20660;-88
2020/12/01 16:36:31;;;;;;;25.30;14.07;;;;;;;;;;4991361;28;20600;-88
2020/12/01 16:40:01;;;;;;;22.90;14.57;;;;;;;;;;4990991;28;20589;-86
2020/12/01 16:43:33;;;;;;;24.13;14.43;;;;;;;;;;4960660;28;20645;-87
2020/12/01 16:47:05;;;;;;;22.50;14.37;;;;;;;;;;4968036;28;20588;-88
2020/12/01 16:50:44;;;;;;;25.43;13.97;;;;;;;;;;5003388;28;20974;-88
2020/12/01 16:54:10;;;;;;;28.87;14.90;;;;;;;;;;5021646;28;20663;-89
2020/12/01 16:57:35;;;;;;;24.53;14.40;;;;;;;;;;5021658;28;20584;-88
2020/12/01 17:00:59;;;;;;;22.47;14.60;;;;;;;;;;4999353;28;20595;-88
2020/12/01 17:04:52;;;;;;;29.13;16.27;;;;;;;;;;5011108;28;20544;-88
2020/12/01 17:07:57;;;;;;;26.93;15.30;;;;;;;;;;4991249;28;20549;-87
2020/12/01 17:11:02;;;;;;;29.97;16.00;;;;;;;;;;4996865;28;20587;-88
2020/12/01 17:14:21;;;;;;;26.80;16.63;;;;;;;;;;5000651;28;20627;-86
2020/12/01 17:17:52;;;;;;;26.33;15.70;;;;;;;;;;5022382;28;21157;-88
2020/12/01 17:20:56;;;;;;;29.30;15.63;;;;;;;;;;5002696;28;20533;-87
2020/12/01 17:24:02;;;;;;;27.53;15.77;;;;;;;;;;4995679;28;20611;-87
2020/12/01 17:27:11;;;;;;;28.90;16.70;;;;;;;;;;5010326;28;20947;-88
2020/12/01 17:30:42;;;;;;;28.33;16.27;;;;;;;;;;5000171;28;20592;-87
2020/12/01 17:34:08;;;;;;;28.23;15.97;;;;;;;;;;5002413;28;20667;-88
2020/12/01 17:37:33;;;;;;;29.53;16.73;;;;;;;;;;4990814;28;20545;-88
2020/12/01 17:41:06;;;;;;;25.30;15.83;;;;;;;;;;4992229;28;20596;-87
2020/12/01 17:44:26;;;;;;;27.50;17.27;;;;;;;;;;5021638;28;20610;-88
2020/12/01 17:47:46;;;;;;;28.23;17.53;;;;;;;;;;5002086;28;20576;-88
2020/12/01 17:50:55;;;;;;;32.00;17.53;;;;;;;;;;5016399;28;20588;-87
2020/12/01 17:54:12;;;;;;;32.87;17.87;;;;;;;;;;5011147;28;21026;-87
2020/12/01 17:57:16;;;;;;;29.83;17.23;;;;;;;;;;5018347;28;21154;-87
2020/12/01 18:00:21;;;;;;;33.83;18.23;;;;;;;;;;5009788;28;20587;-86
2020/12/01 18:03:25;;;;;;;34.60;17.73;;;;;;;;;;5004089;28;20639;-88
2020/12/01 18:06:30;;;;;;;33.13;18.00;;;;;;;;;;4998011;28;20537;-86
2020/12/01 18:09:35;;;;;;;29.80;18.17;;;;;;;;;;5008100;28;20591;-86
2020/12/01 18:13:01;;;;;;;34.07;18.00;;;;;;;;;;5025361;28;20655;-86
2020/12/01 18:16:25;;;;;;;30.30;17.67;;;;;;;;;;5025220;28;20581;-86
2020/12/01 18:20:03;;;;;;;32.30;18.23;;;;;;;;;;5013396;28;20576;-86
2020/12/01 18:23:22;;;;;;;30.80;18.07;;;;;;;;;;5013207;28;20631;-86
2020/12/01 18:26:48;;;;;;;30.00;16.90;;;;;;;;;;5008706;28;20603;-86
2020/12/01 18:30:04;;;;;;;33.93;19.13;;;;;;;;;;5035036;28;20572;-86
2020/12/01 18:33:39;;;;;;;30.77;16.80;;;;;;;;;;5013018;28;20837;-86
2020/12/01 18:36:46;;;;;;;30.80;18.20;;;;;;;;;;5012615;28;20595;-86
2020/12/01 18:39:51;;;;;;;35.83;17.70;;;;;;;;;;5012566;28;20580;-86
2020/12/01 18:43:02;;;;;;;30.33;17.30;;;;;;;;;;5036328;28;20638;-86
2020/12/01 18:46:11;;;;;;;30.23;17.03;;;;;;;;;;5004869;28;20596;-86
2020/12/01 18:49:15;;;;;;;30.43;17.80;;;;;;;;;;5002032;28;20589;-86
2020/12/01 18:52:22;;;;;;;32.73;18.97;;;;;;;;;;5013002;28;20643;-86
2020/12/01 18:55:26;;;;;;;29.40;17.53;;;;;;;;;;5012706;28;20627;-87
2020/12/01 18:58:32;;;;;;;28.40;16.27;;;;;;;;;;5012563;28;20587;-85
2020/12/01 19:01:36;;;;;;;34.17;17.97;;;;;;;;;;4999572;28;20575;-85
2020/12/01 19:04:40;;;;;;;33.00;17.27;;;;;;;;;;5013409;28;20535;-85
2020/12/01 19:07:44;;;;;;;31.90;18.23;;;;;;;;;;5012448;28;20595;-85